Time;durP1;ratioP1;P1;durP2;ratioP2;P2;SDS_P1;SDS_P2;PMS_P1;PMS_P2;Temp;Humidity;BMP_temperature;BMP_pressure;BME280_temperature;BME280_humidity;BME280_pressure;Samples;Min_cycle;Max_cycle;Signal;HPM_P1;HPM_P2
2022/01/15 00:01:01;;;;;;;90.70;33.92;;;;;;;;;;4997743;28;93521;-73
2022/01/15 00:03:27;;;;;;;72.30;30.60;;;;;;;;;;4997602;28;92190;-72
2022/01/15 00:05:55;;;;;;;88.80;32.95;;;;;;;;;;5000952;28;93177;-72
2022/01/15 00:08:21;;;;;;;93.97;32.03;;;;;;;;;;4996406;28;92425;-72
2022/01/15 00:10:48;;;;;;;95.60;32.85;;;;;;;;;;4997632;28;93373;-71
2022/01/15 00:13:25;;;;;;;116.75;34.53;;;;;;;;;;4995712;28;96231;-72
2022/01/15 00:16:03;;;;;;;162.15;35.67;;;;;;;;;;4997439;28;92278;-72
2022/01/15 00:18:42;;;;;;;110.50;34.78;;;;;;;;;;4996931;28;92926;-72
2022/01/15 00:21:09;;;;;;;120.13;35.50;;;;;;;;;;4997204;28;93786;-72
2022/01/15 00:23:35;;;;;;;129.85;35.65;;;;;;;;;;4997197;28;92512;-71
2022/01/15 00:26:02;;;;;;;150.48;36.88;;;;;;;;;;4997290;28;92880;-71
2022/01/15 00:28:29;;;;;;;133.30;35.55;;;;;;;;;;4999967;28;93583;-73
2022/01/15 00:30:55;;;;;;;127.35;34.58;;;;;;;;;;4997867;28;93021;-73
2022/01/15 00:33:21;;;;;;;108.20;33.67;;;;;;;;;;4996723;28;93343;-73
2022/01/15 00:35:48;;;;;;;114.53;31.58;;;;;;;;;;4997248;28;92341;-73
2022/01/15 00:38:14;;;;;;;105.38;28.58;;;;;;;;;;4995868;28;95626;-73
2022/01/15 00:40:40;;;;;;;111.00;28.42;;;;;;;;;;4997122;28;93011;-72
2022/01/15 00:43:07;;;;;;;86.88;28.70;;;;;;;;;;4997066;28;92243;-72
2022/01/15 00:45:33;;;;;;;108.22;30.98;;;;;;;;;;4997167;28;93451;-72
2022/01/15 00:48:00;;;;;;;107.07;29.73;;;;;;;;;;4996827;28;93717;-73
2022/01/15 00:50:26;;;;;;;70.50;25.98;;;;;;;;;;5000064;28;92137;-72
2022/01/15 00:52:53;;;;;;;94.13;29.23;;;;;;;;;;4996907;28;92444;-72
2022/01/15 00:55:19;;;;;;;109.43;29.73;;;;;;;;;;4997366;28;91607;-72
2022/01/15 00:57:45;;;;;;;86.97;28.92;;;;;;;;;;4996917;28;92351;-71
2022/01/15 01:00:14;;;;;;;74.20;26.73;;;;;;;;;;4996663;28;93369;-72
2022/01/15 01:02:40;;;;;;;69.95;26.52;;;;;;;;;;4994794;28;94779;-72
2022/01/15 01:05:07;;;;;;;65.35;26.48;;;;;;;;;;4996473;28;95690;-72
2022/01/15 01:07:34;;;;;;;65.60;24.27;;;;;;;;;;4996696;28;93785;-72
2022/01/15 01:23:36;;;;;;;67.43;24.38;;;;;;;;;;4996215;28;92327;-71
2022/01/15 01:26:10;;;;;;;67.15;24.95;;;;;;;;;;4996399;28;93777;-72
2022/01/15 01:28:42;;;;;;;69.20;24.98;;;;;;;;;;4994652;28;95982;-71
2022/01/15 01:31:16;;;;;;;72.75;24.67;;;;;;;;;;4996487;28;92145;-71
2022/01/15 01:33:47;;;;;;;88.20;27.02;;;;;;;;;;4999612;28;93696;-71
2022/01/15 01:36:23;;;;;;;78.33;24.30;;;;;;;;;;4996438;28;92919;-71
2022/01/15 01:41:19;;;;;;;63.85;22.95;;;;;;;;;;4996229;28;93874;-71
2022/01/15 01:46:19;;;;;;;64.60;22.15;;;;;;;;;;4996109;28;92376;-71
2022/01/15 01:48:46;;;;;;;55.08;19.58;;;;;;;;;;4995621;28;93849;-72
2022/01/15 01:51:24;;;;;;;70.88;21.48;;;;;;;;;;4996228;28;92247;-72
2022/01/15 01:53:51;;;;;;;62.38;21.17;;;;;;;;;;4993759;28;94755;-72
2022/01/15 01:56:19;;;;;;;80.68;22.48;;;;;;;;;;4999007;28;93513;-71
2022/01/15 01:58:46;;;;;;;92.28;21.23;;;;;;;;;;4996176;28;93994;-71
2022/01/15 02:01:12;;;;;;;64.35;20.80;;;;;;;;;;4995743;28;93813;-72
2022/01/15 02:03:39;;;;;;;76.72;22.40;;;;;;;;;;4995755;28;92345;-72
2022/01/15 02:06:05;;;;;;;68.07;20.05;;;;;;;;;;4995983;28;93995;-72
2022/01/15 02:08:36;;;;;;;63.55;21.15;;;;;;;;;;4995883;28;93934;-71
2022/01/15 02:11:04;;;;;;;71.90;20.60;;;;;;;;;;4996335;28;91793;-71
2022/01/15 02:13:31;;;;;;;78.05;21.35;;;;;;;;;;4995652;28;92772;-72
2022/01/15 02:15:58;;;;;;;66.00;22.02;;;;;;;;;;4995692;28;93668;-72
2022/01/15 02:18:25;;;;;;;72.68;21.60;;;;;;;;;;4997169;28;94766;-71
2022/01/15 02:23:31;;;;;;;62.17;21.25;;;;;;;;;;4995570;28;94125;-71
2022/01/15 02:23:46;;;;;;;59.83;19.63;;;;;;;;;;4993524;28;92825;-72
2022/01/15 02:26:16;;;;;;;50.08;18.30;;;;;;;;;;4994997;28;93801;-71
2022/01/15 02:28:44;;;;;;;58.70;19.52;;;;;;;;;;4995224;28;93936;-71
2022/01/15 02:31:12;;;;;;;62.72;18.55;;;;;;;;;;4995143;28;92234;-71
2022/01/15 02:33:39;;;;;;;54.92;18.35;;;;;;;;;;4995558;28;92863;-71
2022/01/15 02:36:08;;;;;;;58.28;18.92;;;;;;;;;;4995093;28;92938;-71
2022/01/15 02:38:35;;;;;;;54.88;16.98;;;;;;;;;;4994267;28;92426;-72
2022/01/15 02:41:01;;;;;;;41.05;15.65;;;;;;;;;;4998274;28;93514;-71
2022/01/15 02:43:32;;;;;;;50.42;16.92;;;;;;;;;;4993366;28;94582;-72
2022/01/15 02:46:17;;;;;;;50.55;17.13;;;;;;;;;;4994346;28;95808;-71
2022/01/15 02:48:45;;;;;;;46.55;17.10;;;;;;;;;;4994879;28;93539;-71
2022/01/15 02:51:12;;;;;;;54.55;17.67;;;;;;;;;;4994298;28;92362;-72
2022/01/15 02:53:38;;;;;;;47.05;17.05;;;;;;;;;;4994988;28;93998;-71
2022/01/15 02:56:04;;;;;;;53.25;17.17;;;;;;;;;;4993585;28;93666;-71
2022/01/15 02:58:31;;;;;;;44.60;15.68;;;;;;;;;;4997762;28;92411;-71
2022/01/15 03:00:57;;;;;;;58.10;17.85;;;;;;;;;;5001678;28;93496;-71
2022/01/15 03:03:24;;;;;;;56.33;18.33;;;;;;;;;;4997951;28;92312;-71
2022/01/15 03:05:50;;;;;;;52.17;17.67;;;;;;;;;;4996911;28;93621;-71
2022/01/15 03:08:16;;;;;;;57.00;17.48;;;;;;;;;;4995770;28;96266;-71
2022/01/15 03:10:43;;;;;;;48.35;16.67;;;;;;;;;;4997919;28;94093;-71
2022/01/15 03:13:12;;;;;;;60.20;17.75;;;;;;;;;;4997841;28;93491;-71
2022/01/15 03:15:39;;;;;;;50.22;16.80;;;;;;;;;;4996665;28;93769;-71
2022/01/15 03:18:06;;;;;;;56.53;17.30;;;;;;;;;;4997839;28;92350;-72
2022/01/15 03:20:32;;;;;;;65.20;17.85;;;;;;;;;;4997337;28;93517;-72
2022/01/15 03:22:58;;;;;;;59.35;16.88;;;;;;;;;;5001000;28;93619;-71
2022/01/15 03:25:25;;;;;;;54.60;16.33;;;;;;;;;;4998584;28;93540;-71
2022/01/15 03:27:51;;;;;;;58.55;16.88;;;;;;;;;;4998173;28;93588;-71
2022/01/15 03:30:18;;;;;;;66.38;17.25;;;;;;;;;;4998279;28;92368;-72
2022/01/15 03:32:44;;;;;;;57.75;16.20;;;;;;;;;;4996677;28;94666;-72
2022/01/15 03:35:12;;;;;;;54.33;16.35;;;;;;;;;;4997793;28;94851;-72
2022/01/15 03:37:38;;;;;;;64.35;16.17;;;;;;;;;;4998252;28;92171;-71
2022/01/15 03:40:07;;;;;;;63.90;17.30;;;;;;;;;;4998268;28;93040;-71
2022/01/15 03:42:33;;;;;;;61.72;16.67;;;;;;;;;;4997892;28;93685;-71
2022/01/15 03:44:59;;;;;;;44.00;14.25;;;;;;;;;;5001131;28;92387;-72
2022/01/15 03:47:26;;;;;;;60.05;16.13;;;;;;;;;;4997309;28;94085;-72
2022/01/15 03:49:52;;;;;;;47.05;14.77;;;;;;;;;;4998523;28;91636;-72
2022/01/15 03:52:18;;;;;;;57.88;17.58;;;;;;;;;;4997925;28;93065;-71
2022/01/15 03:54:45;;;;;;;58.17;16.05;;;;;;;;;;4998017;28;94168;-72
2022/01/15 03:57:12;;;;;;;75.07;18.38;;;;;;;;;;4996418;28;94562;-71
2022/01/15 03:59:38;;;;;;;70.95;16.88;;;;;;;;;;4997707;28;96268;-71
2022/01/15 04:02:05;;;;;;;58.75;15.57;;;;;;;;;;4996756;28;93709;-72
2022/01/15 04:04:31;;;;;;;48.28;14.85;;;;;;;;;;4996107;28;92369;-71
2022/01/15 04:06:57;;;;;;;52.90;15.15;;;;;;;;;;4997151;28;93695;-73
2022/01/15 04:09:24;;;;;;;53.40;14.88;;;;;;;;;;4995069;28;92443;-71
2022/01/15 04:11:50;;;;;;;47.00;14.00;;;;;;;;;;4996658;28;93489;-72
2022/01/15 04:14:16;;;;;;;52.15;15.35;;;;;;;;;;4997980;28;92927;-72
2022/01/15 04:16:43;;;;;;;57.30;16.20;;;;;;;;;;4993913;28;92440;-71
2022/01/15 04:19:09;;;;;;;53.78;15.38;;;;;;;;;;4996946;28;93423;-71
2022/01/15 04:21:36;;;;;;;76.07;16.75;;;;;;;;;;4995198;28;96515;-71
2022/01/15 04:24:02;;;;;;;56.35;15.65;;;;;;;;;;4997251;28;92259;-72
2022/01/15 04:26:29;;;;;;;89.78;16.25;;;;;;;;;;4996321;28;93506;-71
2022/01/15 04:29:02;;;;;;;55.92;16.27;;;;;;;;;;5000448;28;93645;-71
2022/01/15 04:31:35;;;;;;;61.78;16.88;;;;;;;;;;4997502;28;93858;-72
2022/01/15 04:34:02;;;;;;;64.80;15.55;;;;;;;;;;4996898;28;92689;-72
2022/01/15 04:36:28;;;;;;;58.72;15.10;;;;;;;;;;4997017;28;92398;-71
2022/01/15 04:38:55;;;;;;;47.17;15.52;;;;;;;;;;4997867;28;93619;-71
2022/01/15 04:41:21;;;;;;;36.80;13.65;;;;;;;;;;4997177;28;93542;-71
2022/01/15 04:43:48;;;;;;;36.70;12.43;;;;;;;;;;4997320;28;92166;-71
2022/01/15 04:46:14;;;;;;;29.80;11.80;;;;;;;;;;4995655;28;94780;-71
2022/01/15 04:48:41;;;;;;;30.48;11.70;;;;;;;;;;4996426;28;93752;-72
2022/01/15 04:51:07;;;;;;;27.65;11.40;;;;;;;;;;4999993;28;92248;-71
2022/01/15 04:53:34;;;;;;;38.95;13.90;;;;;;;;;;4997121;28;92648;-72
2022/01/15 04:56:00;;;;;;;39.03;13.63;;;;;;;;;;4996988;28;92185;-72
2022/01/15 04:58:27;;;;;;;43.47;13.70;;;;;;;;;;4996887;28;93373;-72
2022/01/15 05:00:54;;;;;;;39.20;12.60;;;;;;;;;;4996783;28;93575;-72
2022/01/15 05:03:20;;;;;;;43.13;13.88;;;;;;;;;;4996813;28;91698;-71
2022/01/15 05:05:47;;;;;;;46.53;13.23;;;;;;;;;;4996881;28;93103;-72
2022/01/15 05:08:13;;;;;;;44.80;13.50;;;;;;;;;;4996589;28;93756;-72
2022/01/15 05:10:45;;;;;;;43.97;12.90;;;;;;;;;;4998342;28;94706;-72
2022/01/15 05:13:14;;;;;;;43.72;13.48;;;;;;;;;;4996757;28;93836;-72
2022/01/15 05:15:44;;;;;;;35.70;13.02;;;;;;;;;;4996771;28;93078;-73
2022/01/15 05:18:11;;;;;;;36.10;12.02;;;;;;;;;;4996990;28;92765;-72
2022/01/15 05:20:41;;;;;;;34.60;13.00;;;;;;;;;;4995000;28;93656;-72
2022/01/15 05:23:07;;;;;;;39.13;12.63;;;;;;;;;;4996379;28;92367;-72
2022/01/15 05:25:34;;;;;;;45.30;12.32;;;;;;;;;;4996697;28;92483;-71
2022/01/15 05:28:00;;;;;;;42.50;13.35;;;;;;;;;;4996938;28;93105;-71
2022/01/15 05:30:30;;;;;;;38.92;14.18;;;;;;;;;;4996194;28;92421;-71
2022/01/15 05:32:56;;;;;;;46.80;14.77;;;;;;;;;;4999492;28;93360;-71
2022/01/15 05:35:26;;;;;;;42.60;15.13;;;;;;;;;;4994685;28;94636;-72
2022/01/15 05:37:56;;;;;;;46.20;14.48;;;;;;;;;;4996508;28;96058;-72
2022/01/15 05:40:23;;;;;;;46.55;15.18;;;;;;;;;;4996237;28;93514;-72
2022/01/15 05:42:49;;;;;;;45.53;15.50;;;;;;;;;;4996329;28;92368;-72
2022/01/15 05:45:16;;;;;;;47.35;16.73;;;;;;;;;;4996119;28;92994;-71
2022/01/15 05:47:42;;;;;;;83.88;18.60;;;;;;;;;;4995895;28;92811;-72
2022/01/15 05:50:09;;;;;;;81.63;21.35;;;;;;;;;;4996138;28;92382;-72
2022/01/15 05:52:35;;;;;;;69.80;21.13;;;;;;;;;;4996627;28;93842;-72
2022/01/15 05:55:02;;;;;;;73.50;22.17;;;;;;;;;;4999023;28;93499;-72
2022/01/15 05:57:29;;;;;;;77.75;24.23;;;;;;;;;;4996086;28;93364;-72
2022/01/15 05:59:55;;;;;;;95.07;25.77;;;;;;;;;;4994210;28;95880;-72
2022/01/15 06:02:21;;;;;;;80.05;23.55;;;;;;;;;;4996203;28;92326;-72
2022/01/15 06:04:48;;;;;;;97.65;24.25;;;;;;;;;;4994744;28;95287;-72
2022/01/15 06:07:15;;;;;;;106.03;25.15;;;;;;;;;;4995764;28;93499;-71
2022/01/15 06:09:41;;;;;;;117.35;26.75;;;;;;;;;;4996108;28;92411;-72
2022/01/15 06:12:09;;;;;;;124.88;25.85;;;;;;;;;;4995573;28;93610;-73
2022/01/15 06:14:36;;;;;;;78.47;26.27;;;;;;;;;;4995856;28;93827;-72
2022/01/15 06:17:04;;;;;;;101.63;26.30;;;;;;;;;;4999358;28;91524;-72
2022/01/15 06:19:30;;;;;;;112.20;28.40;;;;;;;;;;4995620;28;93783;-71
2022/01/15 06:21:57;;;;;;;125.45;28.83;;;;;;;;;;4995944;28;92192;-72
2022/01/15 06:24:24;;;;;;;104.88;28.90;;;;;;;;;;4993930;28;94992;-72
2022/01/15 06:26:50;;;;;;;82.25;27.38;;;;;;;;;;4995167;28;93950;-72
2022/01/15 06:29:16;;;;;;;97.55;28.05;;;;;;;;;;4995887;28;93206;-72
2022/01/15 06:31:43;;;;;;;82.28;26.58;;;;;;;;;;4997814;28;93614;-72
2022/01/15 06:34:09;;;;;;;84.88;27.00;;;;;;;;;;4999036;28;93684;-72
2022/01/15 06:36:35;;;;;;;96.93;24.90;;;;;;;;;;4998631;28;92374;-71
2022/01/15 06:39:02;;;;;;;100.32;25.38;;;;;;;;;;5002196;28;93787;-71
2022/01/15 06:41:28;;;;;;;91.93;26.42;;;;;;;;;;4999111;28;91582;-72
2022/01/15 06:43:54;;;;;;;92.70;25.83;;;;;;;;;;4999077;28;92969;-72
2022/01/15 06:46:22;;;;;;;82.38;27.92;;;;;;;;;;4998996;28;93334;-72
2022/01/15 06:48:48;;;;;;;89.00;27.95;;;;;;;;;;4997304;28;94755;-72
2022/01/15 06:51:15;;;;;;;107.30;27.70;;;;;;;;;;4998888;28;95767;-72
2022/01/15 06:53:41;;;;;;;101.50;27.85;;;;;;;;;;4998978;28;93621;-71
2022/01/15 06:56:07;;;;;;;139.02;24.83;;;;;;;;;;4998332;28;92379;-72
2022/01/15 06:58:34;;;;;;;161.90;24.48;;;;;;;;;;4997639;28;94800;-72
2022/01/15 07:01:00;;;;;;;111.70;23.92;;;;;;;;;;5001679;28;93689;-72
2022/01/15 07:03:27;;;;;;;113.88;22.00;;;;;;;;;;4998611;28;93228;-71
2022/01/15 07:05:53;;;;;;;124.28;23.00;;;;;;;;;;4999240;28;92953;-72
2022/01/15 07:08:20;;;;;;;113.60;21.27;;;;;;;;;;4997804;28;92743;-72
2022/01/15 07:10:46;;;;;;;104.03;20.08;;;;;;;;;;4998297;28;92839;-71
2022/01/15 07:13:12;;;;;;;130.90;21.35;;;;;;;;;;4996900;28;95560;-72
2022/01/15 07:15:39;;;;;;;157.05;23.20;;;;;;;;;;4998092;28;92282;-72
2022/01/15 07:18:05;;;;;;;119.55;20.48;;;;;;;;;;4998440;28;92753;-71
2022/01/15 07:20:31;;;;;;;118.10;22.25;;;;;;;;;;5001122;28;93562;-72
2022/01/15 07:22:59;;;;;;;208.63;25.80;;;;;;;;;;4998254;28;93423;-72
2022/01/15 07:25:25;;;;;;;188.25;22.83;;;;;;;;;;4998046;28;93725;-71
2022/01/15 07:27:52;;;;;;;152.25;21.33;;;;;;;;;;4998304;28;92262;-72
2022/01/15 07:30:18;;;;;;;180.27;22.30;;;;;;;;;;4998641;28;93338;-71
2022/01/15 07:32:45;;;;;;;147.65;22.23;;;;;;;;;;4995995;28;96634;-72
2022/01/15 07:35:13;;;;;;;124.50;21.88;;;;;;;;;;4997281;28;92350;-72
2022/01/15 07:37:40;;;;;;;146.43;24.13;;;;;;;;;;4996026;28;94795;-72
2022/01/15 07:40:07;;;;;;;140.27;22.17;;;;;;;;;;4997063;28;93654;-72
2022/01/15 07:42:36;;;;;;;186.60;24.40;;;;;;;;;;4999582;28;92376;-73
2022/01/15 07:45:04;;;;;;;223.15;23.02;;;;;;;;;;4996661;28;93697;-72
2022/01/15 07:47:30;;;;;;;248.43;26.08;;;;;;;;;;4997464;28;92282;-72
2022/01/15 07:49:57;;;;;;;224.13;22.92;;;;;;;;;;4997254;28;93316;-70
2022/01/15 07:52:23;;;;;;;191.23;24.70;;;;;;;;;;4997084;28;93942;-71
2022/01/15 07:54:50;;;;;;;255.40;24.13;;;;;;;;;;4996948;28;91731;-70
2022/01/15 07:57:18;;;;;;;237.73;25.67;;;;;;;;;;4997326;28;93062;-72
2022/01/15 07:59:44;;;;;;;253.48;23.48;;;;;;;;;;4996210;28;93072;-72
2022/01/15 08:02:11;;;;;;;292.00;29.58;;;;;;;;;;4995032;28;94787;-72
2022/01/15 08:04:37;;;;;;;283.58;26.13;;;;;;;;;;4998427;28;96006;-72
2022/01/15 08:07:04;;;;;;;256.55;26.42;;;;;;;;;;4996155;28;92455;-72
2022/01/15 08:09:31;;;;;;;265.45;26.77;;;;;;;;;;4996363;28;93553;-75
2022/01/15 08:11:57;;;;;;;171.32;25.08;;;;;;;;;;4996346;28;93737;-73
2022/01/15 08:14:23;;;;;;;249.57;26.38;;;;;;;;;;4994805;28;92578;-71
2022/01/15 08:16:50;;;;;;;292.95;27.42;;;;;;;;;;4994775;28;93928;-72
2022/01/15 08:19:16;;;;;;;188.18;22.48;;;;;;;;;;4996085;28;92410;-72
2022/01/15 08:21:43;;;;;;;186.20;25.98;;;;;;;;;;4997144;28;94303;-71
2022/01/15 08:24:10;;;;;;;174.50;24.85;;;;;;;;;;4996167;28;93084;-72
2022/01/15 08:26:36;;;;;;;278.45;27.23;;;;;;;;;;4996185;28;96516;-71
2022/01/15 08:29:03;;;;;;;268.73;27.00;;;;;;;;;;4996695;28;95962;-71
2022/01/15 08:31:30;;;;;;;315.88;29.33;;;;;;;;;;4995720;28;93871;-71
2022/01/15 08:33:56;;;;;;;169.07;25.77;;;;;;;;;;4996332;28;92326;-72
2022/01/15 08:36:23;;;;;;;164.73;25.95;;;;;;;;;;4994855;28;93441;-71
2022/01/15 08:38:49;;;;;;;292.02;28.75;;;;;;;;;;4995809;28;93407;-71
2022/01/15 08:41:23;;;;;;;367.65;34.03;;;;;;;;;;4994701;28;92634;-72
2022/01/15 08:43:49;;;;;;;288.25;29.33;;;;;;;;;;4996359;28;93575;-73
2022/01/15 08:46:18;;;;;;;247.23;28.67;;;;;;;;;;4995321;28;93719;-72
2022/01/15 08:48:45;;;;;;;255.05;29.77;;;;;;;;;;4999037;28;92379;-72
2022/01/15 08:51:11;;;;;;;286.60;29.40;;;;;;;;;;4994464;28;96083;-71
2022/01/15 08:53:38;;;;;;;280.80;29.67;;;;;;;;;;4996411;28;92477;-71
2022/01/15 08:56:04;;;;;;;296.90;31.00;;;;;;;;;;4995381;28;93193;-71
2022/01/15 08:58:31;;;;;;;305.92;32.28;;;;;;;;;;4996105;28;93082;-71
2022/01/15 09:00:57;;;;;;;196.88;29.05;;;;;;;;;;4994720;28;92525;-71
2022/01/15 09:03:24;;;;;;;232.57;30.65;;;;;;;;;;4995223;28;93574;-73
2022/01/15 09:05:53;;;;;;;274.30;30.98;;;;;;;;;;4994947;28;93672;-71
2022/01/15 09:08:24;;;;;;;246.93;28.73;;;;;;;;;;4996642;28;92686;-73
2022/01/15 09:10:54;;;;;;;312.77;30.83;;;;;;;;;;4999022;28;92882;-73
2022/01/15 09:13:20;;;;;;;301.52;31.88;;;;;;;;;;4995844;28;92329;-72
2022/01/15 09:15:47;;;;;;;271.08;28.63;;;;;;;;;;4992897;28;95722;-73
2022/01/15 09:18:15;;;;;;;319.10;32.55;;;;;;;;;;4996019;28;93534;-71
2022/01/15 09:20:41;;;;;;;361.70;32.05;;;;;;;;;;4995760;28;92305;-70
2022/01/15 09:23:08;;;;;;;230.52;28.08;;;;;;;;;;4995956;28;92566;-72
2022/01/15 09:25:34;;;;;;;307.20;31.20;;;;;;;;;;4994281;28;93595;-72
2022/01/15 09:30:46;;;;;;;333.80;31.67;;;;;;;;;;4998703;28;93692;-71
2022/01/15 09:33:12;;;;;;;180.93;29.38;;;;;;;;;;4996468;28;91625;-71
2022/01/15 09:35:39;;;;;;;318.67;33.30;;;;;;;;;;4994741;28;93254;-71
2022/01/15 09:38:05;;;;;;;292.08;33.13;;;;;;;;;;4995363;28;93881;-71
2022/01/15 09:40:32;;;;;;;357.42;35.53;;;;;;;;;;4994036;28;94792;-71
2022/01/15 09:42:58;;;;;;;362.85;36.67;;;;;;;;;;4993832;28;95830;-71
2022/01/15 09:45:25;;;;;;;309.38;33.47;;;;;;;;;;4994485;28;92917;-70
2022/01/15 09:47:58;;;;;;;287.98;31.92;;;;;;;;;;4998856;28;92402;-71
2022/01/15 09:50:25;;;;;;;329.25;31.85;;;;;;;;;;4997629;28;93000;-72
2022/01/15 09:52:52;;;;;;;297.17;32.15;;;;;;;;;;4998520;28;93800;-71
2022/01/15 09:55:21;;;;;;;283.83;33.13;;;;;;;;;;4997894;28;92654;-71
2022/01/15 09:57:48;;;;;;;310.27;33.05;;;;;;;;;;4996079;28;94131;-71
2022/01/15 10:00:18;;;;;;;297.38;29.23;;;;;;;;;;4995736;28;92437;-71
2022/01/15 10:02:48;;;;;;;300.40;30.23;;;;;;;;;;4995452;28;93676;-72
2022/01/15 10:05:15;;;;;;;298.85;29.17;;;;;;;;;;4992654;28;95889;-71
2022/01/15 10:07:54;;;;;;;205.68;27.88;;;;;;;;;;4998720;28;93531;-72
2022/01/15 10:10:22;;;;;;;211.80;26.73;;;;;;;;;;5003281;28;94361;-71
2022/01/15 10:12:48;;;;;;;207.20;28.27;;;;;;;;;;4998676;28;93541;-71
2022/01/15 10:15:16;;;;;;;207.30;26.88;;;;;;;;;;5001088;28;92343;-70
2022/01/15 10:17:43;;;;;;;304.65;29.80;;;;;;;;;;4998690;28;93626;-71
2022/01/15 10:20:13;;;;;;;239.88;30.83;;;;;;;;;;4999006;28;92315;-71
2022/01/15 10:22:43;;;;;;;298.05;33.63;;;;;;;;;;4999189;28;93678;-71
2022/01/15 10:25:18;;;;;;;231.32;33.17;;;;;;;;;;4999033;28;93951;-72
2022/01/15 10:27:46;;;;;;;206.32;31.30;;;;;;;;;;4999201;28;92372;-72
2022/01/15 10:30:15;;;;;;;179.45;27.83;;;;;;;;;;4997567;28;94756;-72
2022/01/15 10:32:59;;;;;;;183.35;28.50;;;;;;;;;;4999173;28;93520;-71
2022/01/15 10:35:26;;;;;;;180.93;25.73;;;;;;;;;;4999079;28;92385;-71
2022/01/15 10:37:58;;;;;;;171.45;27.08;;;;;;;;;;5001703;28;94725;-71
2022/01/15 10:40:25;;;;;;;;;;;;;;;;;;4999654;28;92417;-71
2022/01/15 10:42:54;;;;;;;160.07;24.67;;;;;;;;;;4998849;28;118818;-72
2022/01/15 10:45:21;;;;;;;169.00;24.20;;;;;;;;;;4998681;28;92992;-71
2022/01/15 10:47:49;;;;;;;187.73;28.00;;;;;;;;;;4999066;28;91612;-71
2022/01/15 10:50:19;;;;;;;168.93;25.73;;;;;;;;;;4998663;28;93031;-71
2022/01/15 10:52:46;;;;;;;174.52;27.10;;;;;;;;;;4998767;28;93764;-72
2022/01/15 10:55:15;;;;;;;144.25;27.65;;;;;;;;;;4995807;28;94744;-70
2022/01/15 10:57:42;;;;;;;159.90;26.88;;;;;;;;;;4998412;28;95635;-71
2022/01/15 11:00:14;;;;;;;243.00;27.65;;;;;;;;;;5001009;28;93738;-71
2022/01/15 11:02:41;;;;;;;145.50;26.10;;;;;;;;;;4998494;28;93534;-71
2022/01/15 11:05:19;;;;;;;189.57;27.02;;;;;;;;;;4998468;28;93667;-71
2022/01/15 11:07:46;;;;;;;188.68;25.85;;;;;;;;;;4998416;28;92298;-71
2022/01/15 11:10:12;;;;;;;196.32;27.10;;;;;;;;;;4998363;28;93594;-73
2022/01/15 11:12:39;;;;;;;160.52;26.45;;;;;;;;;;4998461;28;91585;-73
2022/01/15 11:15:06;;;;;;;168.88;28.40;;;;;;;;;;4998148;28;92294;-71
2022/01/15 11:17:33;;;;;;;209.48;27.55;;;;;;;;;;4996234;28;93259;-71
2022/01/15 11:20:02;;;;;;;191.40;26.42;;;;;;;;;;4996094;28;95967;-71
2022/01/15 11:22:28;;;;;;;198.93;27.48;;;;;;;;;;5000961;28;92187;-70
2022/01/15 11:24:55;;;;;;;134.75;27.08;;;;;;;;;;4997900;28;94143;-72
2022/01/15 11:27:21;;;;;;;106.82;27.35;;;;;;;;;;4997828;28;92390;-71
2022/01/15 11:29:47;;;;;;;88.32;25.42;;;;;;;;;;4998083;28;93401;-71
2022/01/15 11:32:15;;;;;;;108.53;21.70;;;;;;;;;;4998122;28;93831;-71
2022/01/15 11:34:57;;;;;;;97.80;23.88;;;;;;;;;;4997951;28;92772;-74
2022/01/15 11:37:24;;;;;;;99.43;23.83;;;;;;;;;;4997405;28;94623;-72
2022/01/15 11:39:55;;;;;;;105.85;24.88;;;;;;;;;;4997509;28;93814;-71
2022/01/15 11:42:33;;;;;;;158.95;26.75;;;;;;;;;;5000844;28;92260;-71
2022/01/15 11:45:01;;;;;;;120.60;24.35;;;;;;;;;;4995887;28;95531;-72
2022/01/15 11:47:27;;;;;;;110.47;25.60;;;;;;;;;;4996861;28;92354;-73
2022/01/15 11:49:54;;;;;;;120.25;26.05;;;;;;;;;;4997913;28;93533;-72
2022/01/15 11:52:24;;;;;;;153.38;25.40;;;;;;;;;;4997463;28;93813;-72
2022/01/15 11:54:50;;;;;;;142.88;26.27;;;;;;;;;;4997879;28;92247;-72
2022/01/15 11:57:20;;;;;;;148.63;31.05;;;;;;;;;;4997685;28;93376;-72
2022/01/15 11:59:56;;;;;;;194.18;30.45;;;;;;;;;;4997520;28;93099;-71
2022/01/15 12:02:28;;;;;;;158.40;30.27;;;;;;;;;;4998108;28;91514;-71
2022/01/15 12:04:55;;;;;;;177.85;31.67;;;;;;;;;;5000236;28;92662;-71
2022/01/15 12:07:22;;;;;;;126.68;26.52;;;;;;;;;;5016578;28;92560;-71
2022/01/15 12:09:52;;;;;;;162.52;31.20;;;;;;;;;;5016017;28;94892;-72
2022/01/15 12:12:19;;;;;;;115.72;27.00;;;;;;;;;;5017548;28;92675;-72
2022/01/15 12:14:52;;;;;;;96.07;28.33;;;;;;;;;;5017471;28;92687;-73
2022/01/15 12:17:30;;;;;;;154.88;30.15;;;;;;;;;;5017053;28;93494;-72
2022/01/15 12:19:57;;;;;;;161.38;28.67;;;;;;;;;;5017294;28;93904;-74
2022/01/15 12:22:37;;;;;;;121.72;27.77;;;;;;;;;;5015945;28;93306;-72
2022/01/15 12:25:04;;;;;;;173.93;29.58;;;;;;;;;;5017475;28;93533;-73
2022/01/15 12:27:31;;;;;;;155.15;30.20;;;;;;;;;;5020813;28;93386;-71
2022/01/15 12:30:10;;;;;;;175.80;30.45;;;;;;;;;;5016751;28;93199;-72
2022/01/15 12:32:40;;;;;;;118.90;28.60;;;;;;;;;;5017191;28;93613;-71
2022/01/15 12:35:15;;;;;;;181.82;29.55;;;;;;;;;;5015491;28;94553;-73
2022/01/15 12:37:51;;;;;;;142.65;29.27;;;;;;;;;;5017157;28;95931;-72
2022/01/15 12:40:20;;;;;;;128.40;27.98;;;;;;;;;;5016745;28;93370;-71
2022/01/15 12:42:53;;;;;;;120.22;27.25;;;;;;;;;;5017460;28;93376;-72
2022/01/15 12:45:20;;;;;;;166.68;30.45;;;;;;;;;;5016833;28;93521;-71
2022/01/15 12:47:47;;;;;;;166.43;31.65;;;;;;;;;;5016943;28;93532;-71
2022/01/15 12:50:13;;;;;;;139.35;30.42;;;;;;;;;;5019851;28;92439;-71
2022/01/15 12:52:40;;;;;;;144.25;29.83;;;;;;;;;;5016614;28;93450;-72
2022/01/15 12:55:06;;;;;;;176.02;30.80;;;;;;;;;;5016858;28;92257;-72
2022/01/15 12:57:44;;;;;;;117.45;26.92;;;;;;;;;;5017319;28;93564;-72
2022/01/15 13:00:18;;;;;;;130.77;27.55;;;;;;;;;;5015176;28;96440;-71
2022/01/15 13:02:44;;;;;;;148.48;29.67;;;;;;;;;;5016665;28;92144;-72
2022/01/15 13:05:14;;;;;;;117.10;28.38;;;;;;;;;;5016182;28;92747;-71
2022/01/15 13:08:07;;;;;;;114.28;29.20;;;;;;;;;;5016570;28;93815;-72
2022/01/15 13:11:04;;;;;;;181.32;29.52;;;;;;;;;;5012875;28;92458;-71
2022/01/15 13:13:33;;;;;;;179.82;29.55;;;;;;;;;;5019545;28;93232;-71
2022/01/15 13:16:04;;;;;;;168.23;28.00;;;;;;;;;;5016588;28;92325;-72
2022/01/15 13:18:32;;;;;;;162.00;31.13;;;;;;;;;;5017097;28;92953;-71
2022/01/15 13:20:58;;;;;;;146.27;29.52;;;;;;;;;;5016417;28;94078;-70
2022/01/15 13:23:33;;;;;;;146.43;28.38;;;;;;;;;;5016499;28;92274;-71
2022/01/15 13:25:59;;;;;;;95.13;27.15;;;;;;;;;;5014614;28;94726;-72
2022/01/15 13:28:26;;;;;;;148.77;28.50;;;;;;;;;;5014774;28;93612;-71
2022/01/15 13:30:52;;;;;;;123.25;29.70;;;;;;;;;;5016371;28;92222;-71
2022/01/15 13:33:18;;;;;;;72.50;25.00;;;;;;;;;;5019404;28;93419;-70
2022/01/15 13:35:45;;;;;;;116.57;29.38;;;;;;;;;;5016452;28;92384;-71
2022/01/15 13:38:13;;;;;;;67.85;25.10;;;;;;;;;;5016403;28;93423;-72
2022/01/15 13:40:44;;;;;;;55.25;24.05;;;;;;;;;;5014926;28;93607;-71
2022/01/15 13:43:12;;;;;;;55.17;24.63;;;;;;;;;;5015851;28;91567;-71
2022/01/15 13:45:40;;;;;;;57.20;25.23;;;;;;;;;;5016209;28;92944;-70
2022/01/15 13:48:14;;;;;;;59.20;24.27;;;;;;;;;;5016241;28;93555;-71
2022/01/15 13:53:37;;;;;;;51.28;24.08;;;;;;;;;;5015971;28;96305;-71
2022/01/15 13:56:11;;;;;;;48.25;22.10;;;;;;;;;;5017826;28;98203;-71
2022/01/15 13:58:38;;;;;;;52.30;22.98;;;;;;;;;;5016071;28;93460;-71
2022/01/15 14:01:22;;;;;;;45.28;22.48;;;;;;;;;;5011453;28;93706;-71
2022/01/15 14:03:49;;;;;;;43.28;20.88;;;;;;;;;;5014589;28;93663;-71
2022/01/15 14:06:16;;;;;;;54.67;24.67;;;;;;;;;;5005619;28;93395;-72
2022/01/15 14:08:46;;;;;;;47.85;23.20;;;;;;;;;;5005361;28;93222;-71
2022/01/15 14:11:15;;;;;;;51.70;23.40;;;;;;;;;;5005017;28;92792;-71
2022/01/15 14:13:41;;;;;;;48.92;22.08;;;;;;;;;;5006185;28;93418;-71
2022/01/15 14:16:24;;;;;;;39.95;20.48;;;;;;;;;;5002887;28;96189;-72
2022/01/15 14:18:59;;;;;;;38.88;19.48;;;;;;;;;;5006659;28;92318;-71
2022/01/15 14:24:13;;;;;;;40.20;20.40;;;;;;;;;;5003342;28;92343;-71
2022/01/15 14:26:44;;;;;;;43.70;21.35;;;;;;;;;;5003852;28;93241;-71
2022/01/15 14:29:12;;;;;;;44.65;21.38;;;;;;;;;;5003024;28;93902;-71
2022/01/15 14:31:39;;;;;;;42.80;19.75;;;;;;;;;;5001748;28;93660;-72
2022/01/15 14:34:06;;;;;;;37.63;19.42;;;;;;;;;;4997175;28;93015;-73
2022/01/15 14:36:32;;;;;;;39.58;21.20;;;;;;;;;;5000034;28;93795;-72
2022/01/15 14:39:03;;;;;;;50.92;22.27;;;;;;;;;;4999700;28;92442;-71
2022/01/15 14:41:34;;;;;;;44.75;22.50;;;;;;;;;;5003422;28;94888;-71
2022/01/15 14:44:01;;;;;;;48.75;22.52;;;;;;;;;;4994871;28;92385;-71